Time;durP1;ratioP1;P1;durP2;ratioP2;P2;SDS_P1;SDS_P2;PMS_P1;PMS_P2;Temp;Humidity;BMP_temperature;BMP_pressure;BME280_temperature;BME280_humidity;BME280_pressure;Samples;Min_cycle;Max_cycle;Signal;HPM_P1;HPM_P2
2022/07/17 00:00:24;;;;;;;5.38;2.25;;;;;;;;;;4898923;29;20043;-86
2022/07/17 00:03:10;;;;;;;2.95;2.50;;;;;;;;;;4911855;29;20048;-86
2022/07/17 00:05:56;;;;;;;5.40;2.50;;;;;;;;;;4919954;29;20391;-85
2022/07/17 00:08:42;;;;;;;4.97;2.60;;;;;;;;;;4911560;29;20043;-84
2022/07/17 00:11:27;;;;;;;5.05;2.40;;;;;;;;;;4926001;29;20383;-83
2022/07/17 00:14:13;;;;;;;4.05;2.45;;;;;;;;;;4919839;29;20392;-86
2022/07/17 00:16:58;;;;;;;4.78;2.55;;;;;;;;;;4905225;29;20044;-85
2022/07/17 00:19:44;;;;;;;3.75;2.25;;;;;;;;;;4920067;29;20040;-84
2022/07/17 00:22:30;;;;;;;6.13;2.85;;;;;;;;;;4919128;29;20048;-86
2022/07/17 00:25:15;;;;;;;6.80;3.05;;;;;;;;;;4925970;29;20044;-86
2022/07/17 00:28:01;;;;;;;6.25;3.28;;;;;;;;;;4905616;29;20472;-85
2022/07/17 00:30:46;;;;;;;5.45;2.90;;;;;;;;;;4919357;29;20379;-86
2022/07/17 00:33:32;;;;;;;3.63;3.20;;;;;;;;;;4922274;29;20408;-86
2022/07/17 00:36:18;;;;;;;4.68;2.90;;;;;;;;;;4919367;29;20044;-85
2022/07/17 00:39:04;;;;;;;6.00;2.80;;;;;;;;;;4911176;29;20052;-87
2022/07/17 00:41:50;;;;;;;2.85;2.50;;;;;;;;;;4925705;29;20040;-85
2022/07/17 00:44:35;;;;;;;6.15;2.30;;;;;;;;;;4919065;29;20404;-84
2022/07/17 00:47:21;;;;;;;14.38;3.70;;;;;;;;;;4919161;29;20044;-85
2022/07/17 00:50:07;;;;;;;4.30;2.67;;;;;;;;;;4919001;29;20040;-85
2022/07/17 00:52:53;;;;;;;6.25;2.88;;;;;;;;;;4919151;29;20052;-86
2022/07/17 00:55:40;;;;;;;7.65;3.00;;;;;;;;;;4919187;29;20040;-83
2022/07/17 00:58:29;;;;;;;6.40;2.85;;;;;;;;;;4910840;29;20048;-84
2022/07/17 01:01:14;;;;;;;3.65;2.67;;;;;;;;;;4897941;29;20048;-86
2022/07/17 01:03:59;;;;;;;6.25;2.70;;;;;;;;;;4918934;29;20044;-84
2022/07/17 01:06:45;;;;;;;10.52;2.92;;;;;;;;;;4904305;29;20048;-84
2022/07/17 01:09:32;;;;;;;5.10;2.85;;;;;;;;;;4911105;29;20048;-86
2022/07/17 01:12:17;;;;;;;5.05;2.90;;;;;;;;;;4918500;29;20032;-86
2022/07/17 01:15:04;;;;;;;3.33;2.60;;;;;;;;;;4910552;29;20048;-85
2022/07/17 01:17:50;;;;;;;5.15;2.83;;;;;;;;;;4918453;29;20372;-85
2022/07/17 01:20:38;;;;;;;3.85;2.78;;;;;;;;;;4918212;29;20044;-85
2022/07/17 01:23:24;;;;;;;7.47;2.78;;;;;;;;;;4918451;29;20052;-84
2022/07/17 01:26:09;;;;;;;6.47;3.33;;;;;;;;;;4897142;29;20044;-85
2022/07/17 01:28:54;;;;;;;3.75;2.53;;;;;;;;;;4918377;29;20048;-84
2022/07/17 01:31:41;;;;;;;4.30;2.55;;;;;;;;;;4917968;29;20040;-83
2022/07/17 01:34:26;;;;;;;5.82;3.13;;;;;;;;;;4917622;29;20044;-83
2022/07/17 01:37:11;;;;;;;4.10;2.70;;;;;;;;;;4917764;29;20048;-86
2022/07/17 01:39:57;;;;;;;4.13;2.58;;;;;;;;;;4924137;29;20036;-85
2022/07/17 01:42:44;;;;;;;4.57;2.75;;;;;;;;;;4910071;29;20044;-86
2022/07/17 01:45:29;;;;;;;4.18;2.70;;;;;;;;;;4918415;29;20052;-85
2022/07/17 01:48:29;;;;;;;5.97;2.88;;;;;;;;;;4903691;29;20040;-82
2022/07/17 01:51:14;;;;;;;5.75;3.00;;;;;;;;;;4917948;29;20043;-85
2022/07/17 01:54:00;;;;;;;4.25;2.58;;;;;;;;;;4917771;29;20044;-86
2022/07/17 01:56:48;;;;;;;4.28;2.85;;;;;;;;;;4909674;29;20412;-84
2022/07/17 01:59:33;;;;;;;6.15;3.00;;;;;;;;;;4917889;29;20036;-87
2022/07/17 02:02:19;;;;;;;5.55;3.03;;;;;;;;;;4917528;29;20464;-84
2022/07/17 02:05:04;;;;;;;7.38;3.22;;;;;;;;;;4909811;29;20044;-84
2022/07/17 02:07:49;;;;;;;3.33;2.92;;;;;;;;;;4917409;29;20043;-87
2022/07/17 02:10:35;;;;;;;6.25;3.03;;;;;;;;;;4917846;29;20044;-85
2022/07/17 02:13:21;;;;;;;4.72;3.20;;;;;;;;;;4918247;29;20048;-87
2022/07/17 02:16:07;;;;;;;6.43;3.65;;;;;;;;;;4916992;29;20043;-86
2022/07/17 02:18:52;;;;;;;6.05;3.33;;;;;;;;;;4923910;29;20044;-88
2022/07/17 02:21:38;;;;;;;8.20;3.45;;;;;;;;;;4916956;29;20036;-84
2022/07/17 02:24:23;;;;;;;6.80;3.38;;;;;;;;;;4910136;29;20052;-86
2022/07/17 02:27:09;;;;;;;5.88;3.30;;;;;;;;;;4917704;29;20044;-85
2022/07/17 02:29:54;;;;;;;8.48;3.50;;;;;;;;;;4903024;29;20048;-86
2022/07/17 02:32:40;;;;;;;6.63;3.50;;;;;;;;;;4917172;29;20048;-85
2022/07/17 02:35:28;;;;;;;7.55;3.42;;;;;;;;;;4902706;29;20036;-85
2022/07/17 02:38:26;;;;;;;7.63;3.33;;;;;;;;;;4905028;29;20480;-85
2022/07/17 02:41:11;;;;;;;6.68;3.10;;;;;;;;;;4903619;29;20040;-85
2022/07/17 02:43:56;;;;;;;4.30;3.25;;;;;;;;;;4917272;29;20048;-86
2022/07/17 02:46:44;;;;;;;4.70;3.10;;;;;;;;;;4926627;29;20051;-85
2022/07/17 02:49:30;;;;;;;9.45;3.40;;;;;;;;;;4927594;29;20048;-85
2022/07/17 02:52:23;;;;;;;5.88;3.63;;;;;;;;;;4913257;29;20039;-85
2022/07/17 02:55:10;;;;;;;6.13;3.63;;;;;;;;;;4927175;29;20048;-85
2022/07/17 02:57:55;;;;;;;4.95;3.47;;;;;;;;;;4921143;29;20052;-84
2022/07/17 03:00:41;;;;;;;7.03;4.10;;;;;;;;;;4921407;29;20375;-88
2022/07/17 03:03:27;;;;;;;7.35;4.35;;;;;;;;;;4921157;29;20040;-88
2022/07/17 03:06:12;;;;;;;7.82;4.30;;;;;;;;;;4913789;29;20051;-85
2022/07/17 03:08:58;;;;;;;9.75;4.22;;;;;;;;;;4920678;29;20040;-86
2022/07/17 03:11:55;;;;;;;7.68;4.10;;;;;;;;;;4920293;29;20040;-86
2022/07/17 03:14:42;;;;;;;6.13;4.28;;;;;;;;;;4907111;29;20044;-84
2022/07/17 03:17:28;;;;;;;6.70;4.28;;;;;;;;;;4920460;29;20476;-85
2022/07/17 03:20:14;;;;;;;6.65;3.92;;;;;;;;;;4920871;29;20395;-85
2022/07/17 03:22:59;;;;;;;7.40;3.95;;;;;;;;;;4920730;29;20056;-85
2022/07/17 03:25:45;;;;;;;6.65;4.00;;;;;;;;;;4920327;29;20052;-85
2022/07/17 03:28:31;;;;;;;6.63;3.83;;;;;;;;;;4906410;29;20388;-86
2022/07/17 03:31:16;;;;;;;7.10;4.18;;;;;;;;;;4920568;29;20036;-87
2022/07/17 03:34:04;;;;;;;7.85;4.82;;;;;;;;;;4907470;29;20043;-86
2022/07/17 03:36:49;;;;;;;8.65;5.22;;;;;;;;;;4912250;29;20044;-85
2022/07/17 03:39:38;;;;;;;7.38;5.05;;;;;;;;;;4917939;29;20032;-86
2022/07/17 03:42:23;;;;;;;7.13;5.00;;;;;;;;;;4895233;29;20048;-86
2022/07/17 03:45:09;;;;;;;6.75;4.82;;;;;;;;;;4901080;29;20048;-87
2022/07/17 03:48:01;;;;;;;6.53;4.55;;;;;;;;;;4911621;29;20044;-85
2022/07/17 03:50:47;;;;;;;8.18;3.90;;;;;;;;;;4914971;29;20380;-86
2022/07/17 04:14:31;;;;;;;5.93;3.53;;;;;;;;;;4900214;29;20041;-86
2022/07/17 04:17:43;;;;;;;8.40;3.83;;;;;;;;;;4900633;29;20504;-85
2022/07/17 04:20:36;;;;;;;6.43;3.95;;;;;;;;;;4899616;29;20044;-84
2022/07/17 04:23:28;;;;;;;6.90;3.60;;;;;;;;;;4900681;29;20041;-85
2022/07/17 04:26:23;;;;;;;8.48;3.45;;;;;;;;;;4900882;29;20056;-83
2022/07/17 04:29:08;;;;;;;7.03;4.28;;;;;;;;;;4906400;29;20041;-85
2022/07/17 04:31:54;;;;;;;5.90;3.60;;;;;;;;;;4900304;29;20412;-85
2022/07/17 04:34:39;;;;;;;7.32;3.90;;;;;;;;;;4898893;29;20048;-84
2022/07/17 04:37:39;;;;;;;5.30;4.05;;;;;;;;;;4900369;29;20044;-83
2022/07/17 04:40:24;;;;;;;7.68;4.65;;;;;;;;;;4905631;29;20049;-84
2022/07/17 04:43:09;;;;;;;7.20;3.95;;;;;;;;;;4900333;29;20052;-84
2022/07/17 04:45:55;;;;;;;7.18;4.20;;;;;;;;;;4906494;29;20468;-83
2022/07/17 04:48:43;;;;;;;5.68;4.15;;;;;;;;;;4909424;29;20045;-84
2022/07/17 04:51:33;;;;;;;12.38;4.57;;;;;;;;;;4906603;29;20032;-84
2022/07/17 04:54:18;;;;;;;10.55;4.63;;;;;;;;;;4902205;29;20045;-84
2022/07/17 04:57:03;;;;;;;10.68;4.90;;;;;;;;;;4910877;29;20047;-84
2022/07/17 04:59:55;;;;;;;8.90;5.22;;;;;;;;;;4908391;29;20052;-84
2022/07/17 05:03:10;;;;;;;9.20;6.82;;;;;;;;;;4899463;29;20476;-86
2022/07/17 05:05:56;;;;;;;8.60;5.88;;;;;;;;;;4900092;29;20044;-83
2022/07/17 05:08:42;;;;;;;9.75;5.35;;;;;;;;;;4912207;29;20040;-84
2022/07/17 05:11:30;;;;;;;12.23;4.55;;;;;;;;;;4903763;29;20044;-84
2022/07/17 05:14:21;;;;;;;7.95;4.50;;;;;;;;;;4909421;29;20044;-84
2022/07/17 05:17:08;;;;;;;10.00;4.45;;;;;;;;;;4910908;29;20464;-83
2022/07/17 05:19:53;;;;;;;10.90;4.10;;;;;;;;;;4900073;29;20048;-83
2022/07/17 05:22:41;;;;;;;9.13;3.63;;;;;;;;;;4922327;29;20044;-85
2022/07/17 05:25:26;;;;;;;6.05;3.47;;;;;;;;;;4909005;29;20032;-82
2022/07/17 05:28:11;;;;;;;8.20;3.60;;;;;;;;;;4901639;29;20041;-84
2022/07/17 05:30:57;;;;;;;5.32;3.35;;;;;;;;;;4899286;29;20036;-85
2022/07/17 05:33:42;;;;;;;5.97;3.40;;;;;;;;;;4899396;29;20045;-84
2022/07/17 05:36:30;;;;;;;8.77;3.40;;;;;;;;;;4899204;29;20385;-85
2022/07/17 05:39:16;;;;;;;6.45;3.45;;;;;;;;;;4878117;29;20468;-84
2022/07/17 05:42:01;;;;;;;8.20;3.78;;;;;;;;;;4885100;29;20049;-85
2022/07/17 05:44:47;;;;;;;6.50;3.60;;;;;;;;;;4890947;29;20056;-85
2022/07/17 05:47:32;;;;;;;8.70;4.18;;;;;;;;;;4894510;29;20044;-85
2022/07/17 05:50:19;;;;;;;20.95;3.80;;;;;;;;;;4893212;29;20028;-85
2022/07/17 05:53:04;;;;;;;75.68;57.90;;;;;;;;;;4913049;29;20048;-84
2022/07/17 06:00:18;;;;;;;36.83;26.23;;;;;;;;;;4905184;29;20045;-86
2022/07/17 06:03:47;;;;;;;642.50;572.78;;;;;;;;;;4891074;29;20040;-84
2022/07/17 06:07:01;;;;;;;40.85;35.88;;;;;;;;;;4891176;29;20052;-83
2022/07/17 06:09:46;;;;;;;6.30;4.10;;;;;;;;;;4892774;29;20040;-83
2022/07/17 06:12:32;;;;;;;8.80;4.63;;;;;;;;;;4901283;29;20476;-82
2022/07/17 06:15:18;;;;;;;6.00;2.72;;;;;;;;;;4905065;29;20044;-83
2022/07/17 06:18:04;;;;;;;5.63;2.85;;;;;;;;;;4918690;29;20048;-84
2022/07/17 06:20:48;;;;;;;8.45;3.10;;;;;;;;;;4919722;29;20032;-84
2022/07/17 06:23:33;;;;;;;5.57;2.65;;;;;;;;;;4924913;29;20049;-84
2022/07/17 06:26:19;;;;;;;4.70;2.95;;;;;;;;;;4920750;29;20044;-85
2022/07/17 06:29:04;;;;;;;8.27;3.47;;;;;;;;;;4919767;29;20041;-83
2022/07/17 06:31:50;;;;;;;9.35;2.65;;;;;;;;;;4917496;29;20040;-85
2022/07/17 06:34:36;;;;;;;6.78;3.30;;;;;;;;;;4918227;29;20048;-84
2022/07/17 06:37:21;;;;;;;4.82;2.40;;;;;;;;;;4917713;29;20040;-83
2022/07/17 06:40:07;;;;;;;6.95;2.90;;;;;;;;;;4917888;29;20047;-83
2022/07/17 06:42:52;;;;;;;5.53;2.78;;;;;;;;;;4918291;29;20048;-82
2022/07/17 06:45:38;;;;;;;6.78;3.20;;;;;;;;;;4919089;29;20044;-83
2022/07/17 06:48:24;;;;;;;7.13;3.17;;;;;;;;;;4910184;29;20048;-83
2022/07/17 06:51:09;;;;;;;8.85;3.33;;;;;;;;;;4903935;29;20040;-83
2022/07/17 06:53:58;;;;;;;5.55;3.08;;;;;;;;;;4924426;29;20052;-82
2022/07/17 06:56:43;;;;;;;5.85;2.75;;;;;;;;;;4917751;29;20044;-82
2022/07/17 06:59:29;;;;;;;7.90;3.08;;;;;;;;;;4918353;29;20044;-82
2022/07/17 07:02:17;;;;;;;12.80;5.47;;;;;;;;;;4917384;29;20048;-84
2022/07/17 07:05:04;;;;;;;5.70;3.10;;;;;;;;;;4910253;29;20075;-84
2022/07/17 07:07:55;;;;;;;5.88;2.95;;;;;;;;;;4917710;29;20052;-83
2022/07/17 07:10:42;;;;;;;6.28;3.53;;;;;;;;;;4909881;29;20048;-80
2022/07/17 07:13:31;;;;;;;5.03;3.35;;;;;;;;;;4923356;29;20048;-80
2022/07/17 07:16:16;;;;;;;4.93;2.75;;;;;;;;;;4923185;29;20456;-83
2022/07/17 07:19:02;;;;;;;9.90;3.60;;;;;;;;;;4917295;29;20048;-86
2022/07/17 07:21:47;;;;;;;7.07;2.70;;;;;;;;;;4923462;29;20048;-84
2022/07/17 07:24:32;;;;;;;5.65;2.80;;;;;;;;;;4917614;29;20048;-84
2022/07/17 07:27:18;;;;;;;7.18;3.35;;;;;;;;;;4917914;29;20044;-84
2022/07/17 07:30:03;;;;;;;7.25;2.90;;;;;;;;;;4917869;29;20036;-85
2022/07/17 07:32:49;;;;;;;7.10;3.28;;;;;;;;;;4925412;29;20052;-86
2022/07/17 07:35:34;;;;;;;8.45;3.03;;;;;;;;;;4921222;29;20051;-82
2022/07/17 07:38:20;;;;;;;5.50;3.05;;;;;;;;;;4919872;29;20040;-81
2022/07/17 07:41:06;;;;;;;5.60;3.40;;;;;;;;;;4920784;29;20051;-86
2022/07/17 07:43:51;;;;;;;8.63;4.55;;;;;;;;;;4906344;29;20411;-84
2022/07/17 07:46:37;;;;;;;8.40;4.65;;;;;;;;;;4920500;29;20048;-83
2022/07/17 07:49:22;;;;;;;9.88;3.50;;;;;;;;;;4920158;29;20044;-84
2022/07/17 07:52:08;;;;;;;6.07;3.03;;;;;;;;;;4912196;29;20044;-82
2022/07/17 07:54:53;;;;;;;5.93;2.63;;;;;;;;;;4920358;29;20380;-84
2022/07/17 07:57:38;;;;;;;4.05;2.50;;;;;;;;;;4919641;29;20040;-82
2022/07/17 08:00:24;;;;;;;8.05;2.83;;;;;;;;;;4926555;29;20043;-82
2022/07/17 08:03:10;;;;;;;4.35;2.72;;;;;;;;;;4919782;29;20048;-81
2022/07/17 08:05:55;;;;;;;6.28;2.95;;;;;;;;;;4925825;29;20048;-83
2022/07/17 08:08:41;;;;;;;5.10;2.63;;;;;;;;;;4926007;29;20040;-82
2022/07/17 08:11:26;;;;;;;3.92;2.50;;;;;;;;;;4920021;29;20044;-82
2022/07/17 08:14:12;;;;;;;7.15;2.40;;;;;;;;;;4913187;29;20048;-82
2022/07/17 08:16:57;;;;;;;6.60;2.50;;;;;;;;;;4913925;29;20044;-85
2022/07/17 08:19:43;;;;;;;6.30;2.70;;;;;;;;;;4921751;29;20040;-84
2022/07/17 08:22:29;;;;;;;4.82;3.20;;;;;;;;;;4911196;29;20044;-84
2022/07/17 08:25:14;;;;;;;5.05;2.42;;;;;;;;;;4914886;29;20488;-83
2022/07/17 08:28:00;;;;;;;3.00;2.42;;;;;;;;;;4906629;29;20048;-84
2022/07/17 08:30:45;;;;;;;5.93;2.38;;;;;;;;;;4895166;29;20507;-83
2022/07/17 08:33:30;;;;;;;5.13;2.55;;;;;;;;;;4903748;29;20400;-84
2022/07/17 08:36:15;;;;;;;3.75;2.20;;;;;;;;;;4905530;29;20049;-83
2022/07/17 08:39:01;;;;;;;4.03;2.10;;;;;;;;;;4912209;29;20048;-84
2022/07/17 08:41:46;;;;;;;8.30;2.72;;;;;;;;;;4907426;29;20388;-84
2022/07/17 08:44:32;;;;;;;3.20;2.10;;;;;;;;;;4889315;29;20048;-84
2022/07/17 08:47:21;;;;;;;5.57;2.10;;;;;;;;;;4910512;29;20051;-86
2022/07/17 08:50:09;;;;;;;7.47;2.10;;;;;;;;;;4903338;29;20059;-83
2022/07/17 08:52:54;;;;;;;4.45;2.33;;;;;;;;;;4921043;29;20400;-84
2022/07/17 08:55:40;;;;;;;5.32;2.10;;;;;;;;;;4902358;29;20040;-83
2022/07/17 08:58:25;;;;;;;4.10;2.10;;;;;;;;;;4922819;29;20043;-84
2022/07/17 09:01:11;;;;;;;7.55;2.20;;;;;;;;;;4916218;29;20395;-82
2022/07/17 09:04:05;;;;;;;9.27;2.40;;;;;;;;;;4901564;29;20060;-83
2022/07/17 09:07:09;;;;;;;3.25;2.20;;;;;;;;;;4911701;29;20051;-84
2022/07/17 09:09:58;;;;;;;5.72;1.80;;;;;;;;;;4912859;29;20044;-84
2022/07/17 09:12:47;;;;;;;6.30;1.70;;;;;;;;;;4924997;29;20040;-84
2022/07/17 09:15:33;;;;;;;5.10;1.80;;;;;;;;;;4919624;29;20040;-83
2022/07/17 09:18:18;;;;;;;5.90;1.83;;;;;;;;;;4912586;29;20048;-85
2022/07/17 09:21:05;;;;;;;6.85;2.17;;;;;;;;;;4919344;29;20036;-84
2022/07/17 09:24:06;;;;;;;4.78;1.70;;;;;;;;;;4919785;29;20040;-83
2022/07/17 09:27:12;;;;;;;4.57;1.65;;;;;;;;;;4918765;29;20476;-85
2022/07/17 09:30:02;;;;;;;4.80;1.60;;;;;;;;;;4911394;29;20040;-85
2022/07/17 09:32:50;;;;;;;2.95;1.70;;;;;;;;;;4932243;29;20043;-85
2022/07/17 09:35:53;;;;;;;4.13;1.65;;;;;;;;;;4963644;28;20066;-83
2022/07/17 09:38:42;;;;;;;4.00;1.55;;;;;;;;;;4957127;29;20043;-85
2022/07/17 09:41:29;;;;;;;8.23;1.83;;;;;;;;;;4963634;28;20054;-84
2022/07/17 09:44:15;;;;;;;4.45;1.63;;;;;;;;;;4942726;29;20047;-84
2022/07/17 09:47:02;;;;;;;2.60;1.50;;;;;;;;;;4957705;29;20390;-84
2022/07/17 09:49:47;;;;;;;6.20;2.00;;;;;;;;;;4957269;29;20494;-85
2022/07/17 09:52:37;;;;;;;4.05;1.85;;;;;;;;;;4959026;29;20047;-83
2022/07/17 09:55:28;;;;;;;2.72;1.60;;;;;;;;;;4937293;29;20047;-84
2022/07/17 09:58:21;;;;;;;4.53;1.88;;;;;;;;;;4926551;29;20040;-83
2022/07/17 10:01:07;;;;;;;4.20;1.52;;;;;;;;;;4918932;29;20044;-83
2022/07/17 10:03:54;;;;;;;2.70;1.60;;;;;;;;;;4918861;29;20036;-82
2022/07/17 10:06:39;;;;;;;4.30;1.70;;;;;;;;;;4924470;29;20039;-83
2022/07/17 10:09:25;;;;;;;3.10;1.70;;;;;;;;;;4910725;29;20048;-86
2022/07/17 10:12:10;;;;;;;4.53;2.08;;;;;;;;;;4911572;29;20055;-85
2022/07/17 10:14:56;;;;;;;4.93;1.77;;;;;;;;;;4918928;29;20044;-85
2022/07/17 10:17:41;;;;;;;4.32;1.73;;;;;;;;;;4917912;29;20036;-85
2022/07/17 10:20:27;;;;;;;6.65;1.80;;;;;;;;;;4919400;29;20044;-84
2022/07/17 10:23:15;;;;;;;3.38;1.45;;;;;;;;;;4904836;29;20048;-84
2022/07/17 10:26:01;;;;;;;5.13;2.55;;;;;;;;;;4918247;29;20044;-83
2022/07/17 10:28:47;;;;;;;3.45;1.65;;;;;;;;;;4917673;29;20056;-83
2022/07/17 10:31:34;;;;;;;5.75;1.70;;;;;;;;;;4924073;29;20048;-83
2022/07/17 10:34:36;;;;;;;3.25;1.90;;;;;;;;;;4920104;29;20044;-84
2022/07/17 10:37:27;;;;;;;3.88;1.88;;;;;;;;;;4918676;29;20452;-82
2022/07/17 10:40:24;;;;;;;3.30;2.00;;;;;;;;;;4923759;29;20055;-83
2022/07/17 10:43:10;;;;;;;3.15;1.95;;;;;;;;;;4923707;29;20048;-84
2022/07/17 10:45:55;;;;;;;3.40;1.83;;;;;;;;;;4917382;29;20041;-84
2022/07/17 10:48:41;;;;;;;3.47;1.90;;;;;;;;;;4917431;29;20383;-84
2022/07/17 10:51:29;;;;;;;7.03;1.90;;;;;;;;;;4917387;29;20052;-83
2022/07/17 10:54:14;;;;;;;6.20;2.00;;;;;;;;;;4924129;29;20048;-83
2022/07/17 10:57:01;;;;;;;4.93;1.88;;;;;;;;;;4917703;29;20396;-83
2022/07/17 10:59:47;;;;;;;3.85;1.77;;;;;;;;;;4918138;29;20044;-84
2022/07/17 11:02:32;;;;;;;4.32;1.75;;;;;;;;;;4925828;29;20079;-84
2022/07/17 11:05:18;;;;;;;3.70;1.77;;;;;;;;;;4921424;29;20040;-83
2022/07/17 11:08:09;;;;;;;3.13;1.83;;;;;;;;;;4927839;29;20040;-82
2022/07/17 11:10:54;;;;;;;4.20;1.88;;;;;;;;;;4933309;29;20048;-84
2022/07/17 11:13:40;;;;;;;3.30;1.88;;;;;;;;;;4912058;29;20546;-83
2022/07/17 11:16:27;;;;;;;4.63;1.83;;;;;;;;;;4926996;29;20380;-82
2022/07/17 11:19:19;;;;;;;4.05;1.77;;;;;;;;;;4925990;29;20044;-81
2022/07/17 11:22:09;;;;;;;3.50;1.80;;;;;;;;;;4931803;29;20048;-83
2022/07/17 11:24:54;;;;;;;3.15;1.73;;;;;;;;;;4933133;29;20044;-83
2022/07/17 11:27:40;;;;;;;4.53;2.05;;;;;;;;;;4925436;29;20051;-82
2022/07/17 11:30:26;;;;;;;5.75;2.40;;;;;;;;;;4919104;29;20384;-80
2022/07/17 11:33:15;;;;;;;2.97;1.77;;;;;;;;;;4925079;29;20468;-81
2022/07/17 11:36:00;;;;;;;27.63;23.23;;;;;;;;;;4926351;29;20416;-84
2022/07/17 11:38:46;;;;;;;3.30;2.05;;;;;;;;;;4919995;29;20036;-84
2022/07/17 11:41:34;;;;;;;3.47;1.85;;;;;;;;;;4920599;29;20044;-81
2022/07/17 11:44:24;;;;;;;23.48;18.02;;;;;;;;;;4926770;29;20048;-82
2022/07/17 11:47:11;;;;;;;217.57;182.52;;;;;;;;;;4920609;29;20048;-84
2022/07/17 11:50:12;;;;;;;3.78;2.50;;;;;;;;;;4919934;29;20500;-80
2022/07/17 11:53:02;;;;;;;6.97;1.98;;;;;;;;;;4920697;29;20484;-83
2022/07/17 11:55:47;;;;;;;3.83;2.10;;;;;;;;;;4920330;29;20056;-81
2022/07/17 11:58:47;;;;;;;3.63;1.88;;;;;;;;;;4926240;29;20044;-81
2022/07/17 12:01:44;;;;;;;4.03;1.90;;;;;;;;;;4920587;29;20044;-81
2022/07/17 12:04:29;;;;;;;5.18;1.83;;;;;;;;;;4905620;29;20048;-80
2022/07/17 12:07:15;;;;;;;2.70;1.92;;;;;;;;;;4920205;29;20044;-81
2022/07/17 12:10:21;;;;;;;7.03;2.72;;;;;;;;;;4919741;29;20040;-81
2022/07/17 12:13:07;;;;;;;6.13;1.77;;;;;;;;;;4926681;29;20051;-79
2022/07/17 12:15:52;;;;;;;5.32;2.20;;;;;;;;;;4926143;29;20052;-82
2022/07/17 12:18:38;;;;;;;4.30;1.67;;;;;;;;;;4918834;29;20051;-81
2022/07/17 12:21:23;;;;;;;4.65;1.75;;;;;;;;;;4927079;29;20048;-82
2022/07/17 12:24:12;;;;;;;6.25;2.10;;;;;;;;;;4924437;29;20052;-81
2022/07/17 12:27:01;;;;;;;4.57;1.80;;;;;;;;;;4925728;29;20471;-80
2022/07/17 12:29:46;;;;;;;3.65;1.73;;;;;;;;;;4926286;29;20052;-81
2022/07/17 12:32:40;;;;;;;4.43;2.05;;;;;;;;;;4918893;29;20041;-84
2022/07/17 12:35:25;;;;;;;2.00;1.60;;;;;;;;;;4900852;29;20041;-82
2022/07/17 12:38:11;;;;;;;3.88;2.10;;;;;;;;;;4906494;29;20041;-82
2022/07/17 12:40:57;;;;;;;5.35;2.10;;;;;;;;;;4905599;29;20392;-81
2022/07/17 12:43:43;;;;;;;5.28;1.90;;;;;;;;;;4906763;29;20473;-80
2022/07/17 12:46:28;;;;;;;3.47;2.30;;;;;;;;;;4901368;29;20041;-83
2022/07/17 12:49:13;;;;;;;4.07;2.05;;;;;;;;;;4925248;29;20060;-83
2022/07/17 12:51:59;;;;;;;5.22;1.80;;;;;;;;;;4918579;29;20468;-82
2022/07/17 12:54:44;;;;;;;4.25;2.08;;;;;;;;;;4917560;29;20056;-85
2022/07/17 12:57:30;;;;;;;5.38;2.33;;;;;;;;;;4907493;29;20037;-82
2022/07/17 13:00:16;;;;;;;6.00;1.88;;;;;;;;;;4899494;29;20048;-82
2022/07/17 13:03:02;;;;;;;6.07;2.25;;;;;;;;;;4899859;29;20049;-82
2022/07/17 13:05:48;;;;;;;6.13;2.03;;;;;;;;;;4906090;29;20044;-81
2022/07/17 13:08:34;;;;;;;5.43;2.15;;;;;;;;;;4913155;29;20044;-81
2022/07/17 13:11:19;;;;;;;7.07;1.80;;;;;;;;;;4918612;29;20052;-79
2022/07/17 13:14:06;;;;;;;3.28;1.90;;;;;;;;;;4919105;29;20044;-81
2022/07/17 13:16:53;;;;;;;6.35;2.42;;;;;;;;;;4926159;29;20044;-85
2022/07/17 13:19:39;;;;;;;3.45;1.60;;;;;;;;;;4924830;29;20052;-81
2022/07/17 13:22:26;;;;;;;5.68;1.90;;;;;;;;;;4918622;29;20040;-83
2022/07/17 13:25:11;;;;;;;9.82;2.20;;;;;;;;;;4911253;29;20044;-83
2022/07/17 13:27:57;;;;;;;5.47;1.98;;;;;;;;;;4918713;29;20048;-81
2022/07/17 13:30:42;;;;;;;5.43;1.80;;;;;;;;;;4924940;29;20452;-81
2022/07/17 13:33:29;;;;;;;5.43;2.63;;;;;;;;;;4921810;29;20052;-81
2022/07/17 13:36:14;;;;;;;5.75;1.70;;;;;;;;;;4916968;29;20044;-80
2022/07/17 13:39:00;;;;;;;7.15;1.52;;;;;;;;;;4923747;29;20040;-80
2022/07/17 13:41:46;;;;;;;3.30;1.60;;;;;;;;;;4923026;29;20035;-83
2022/07/17 13:44:31;;;;;;;2.63;1.83;;;;;;;;;;4914425;29;20048;-85
2022/07/17 13:47:16;;;;;;;2.85;1.80;;;;;;;;;;4909451;29;20380;-83
2022/07/17 13:50:01;;;;;;;3.25;1.40;;;;;;;;;;4917584;29;20044;-82
2022/07/17 13:52:47;;;;;;;2.28;1.60;;;;;;;;;;4908761;29;20047;-81
2022/07/17 13:55:33;;;;;;;4.80;1.95;;;;;;;;;;4923434;29;20040;-85
2022/07/17 13:58:18;;;;;;;5.70;2.08;;;;;;;;;;4917502;29;20395;-81
2022/07/17 14:01:03;;;;;;;6.00;2.20;;;;;;;;;;4903218;29;20044;-82
2022/07/17 14:03:49;;;;;;;3.65;1.50;;;;;;;;;;4917739;29;20043;-82
2022/07/17 14:06:35;;;;;;;6.28;1.80;;;;;;;;;;4918217;29;20040;-84
2022/07/17 14:09:21;;;;;;;4.18;1.65;;;;;;;;;;4917159;29;20044;-83
2022/07/17 14:12:06;;;;;;;3.13;1.50;;;;;;;;;;4923957;29;20492;-82
2022/07/17 14:14:51;;;;;;;4.25;2.47;;;;;;;;;;4917652;29;20052;-83
2022/07/17 14:17:37;;;;;;;2.55;1.60;;;;;;;;;;4917264;29;20048;-84
2022/07/17 14:20:23;;;;;;;2.28;1.65;;;;;;;;;;4917430;29;20036;-83
2022/07/17 14:23:08;;;;;;;2.33;1.65;;;;;;;;;;4917332;29;20044;-80
2022/07/17 14:25:54;;;;;;;4.03;1.60;;;;;;;;;;4912655;29;20033;-81
2022/07/17 14:28:40;;;;;;;2.05;1.50;;;;;;;;;;4917163;29;20379;-83
2022/07/17 14:31:25;;;;;;;3.85;1.67;;;;;;;;;;4916902;29;20044;-83
2022/07/17 14:34:12;;;;;;;4.13;1.63;;;;;;;;;;4917705;29;20048;-82
2022/07/17 14:36:57;;;;;;;6.32;1.83;;;;;;;;;;4917176;29;20360;-82
2022/07/17 14:39:43;;;;;;;6.03;2.53;;;;;;;;;;4917801;29;20044;-84
2022/07/17 14:42:33;;;;;;;6.65;2.50;;;;;;;;;;4921295;29;20040;-80
2022/07/17 14:45:18;;;;;;;3.47;1.80;;;;;;;;;;4920955;29;20043;-82
2022/07/17 14:48:04;;;;;;;3.33;2.00;;;;;;;;;;4921150;29;20472;-81
2022/07/17 14:50:49;;;;;;;7.78;2.00;;;;;;;;;;4906827;29;20392;-82
2022/07/17 14:53:35;;;;;;;5.20;1.80;;;;;;;;;;4927842;29;20043;-81
2022/07/17 14:56:20;;;;;;;3.95;1.92;;;;;;;;;;4921654;29;20048;-80
2022/07/17 14:59:06;;;;;;;4.05;1.80;;;;;;;;;;4921738;29;20391;-81
2022/07/17 15:01:51;;;;;;;6.68;1.85;;;;;;;;;;4920938;29;20040;-79
2022/07/17 15:04:37;;;;;;;3.17;1.67;;;;;;;;;;4920734;29;20475;-82
2022/07/17 15:07:22;;;;;;;5.53;1.85;;;;;;;;;;4921135;29;20044;-83
2022/07/17 15:10:08;;;;;;;3.55;1.60;;;;;;;;;;4920790;29;20047;-80
2022/07/17 15:12:54;;;;;;;4.53;1.60;;;;;;;;;;4927213;29;20482;-83
2022/07/17 15:15:39;;;;;;;2.10;1.70;;;;;;;;;;4920523;29;20376;-83
2022/07/17 15:18:25;;;;;;;3.13;1.73;;;;;;;;;;4920276;29;20036;-83
2022/07/17 15:21:11;;;;;;;5.32;2.15;;;;;;;;;;4920888;29;20472;-81
2022/07/17 15:23:57;;;;;;;7.05;2.05;;;;;;;;;;4916061;29;20485;-84
2022/07/17 15:26:43;;;;;;;7.03;2.10;;;;;;;;;;4919274;29;20044;-84
2022/07/17 15:29:28;;;;;;;3.22;1.70;;;;;;;;;;4893820;29;20036;-82
2022/07/17 15:32:15;;;;;;;2.55;1.83;;;;;;;;;;4901298;29;20376;-81
2022/07/17 15:35:53;;;;;;;3.65;1.80;;;;;;;;;;4906701;29;20040;-82
2022/07/17 15:38:44;;;;;;;4.30;1.90;;;;;;;;;;4900176;29;20033;-81
2022/07/17 15:42:02;;;;;;;4.95;1.92;;;;;;;;;;4907141;29;20480;-82
2022/07/17 15:44:47;;;;;;;3.75;1.88;;;;;;;;;;4900778;29;20044;-80
2022/07/17 15:47:35;;;;;;;3.40;1.90;;;;;;;;;;4907344;29;20048;-81
2022/07/17 15:50:23;;;;;;;2.95;2.10;;;;;;;;;;4906727;29;20040;-83
2022/07/17 15:53:17;;;;;;;5.40;2.00;;;;;;;;;;4905489;29;20049;-82
2022/07/17 15:56:30;;;;;;;3.17;1.80;;;;;;;;;;4906394;29;20048;-83
2022/07/17 16:00:10;;;;;;;3.30;1.92;;;;;;;;;;4900584;29;20041;-82
2022/07/17 16:03:04;;;;;;;2.92;1.80;;;;;;;;;;4900494;29;20040;-79
2022/07/17 16:05:49;;;;;;;2.40;1.67;;;;;;;;;;4907199;29;20048;-82
2022/07/17 16:08:34;;;;;;;3.00;1.80;;;;;;;;;;4907034;29;20380;-82
2022/07/17 16:11:20;;;;;;;2.63;1.67;;;;;;;;;;4907828;29;20040;-81
2022/07/17 16:14:06;;;;;;;4.05;2.10;;;;;;;;;;4900237;29;20040;-82
2022/07/17 16:16:51;;;;;;;11.23;2.22;;;;;;;;;;4906816;29;20044;-84
2022/07/17 16:19:37;;;;;;;7.78;1.92;;;;;;;;;;4900350;29;20045;-84
2022/07/17 16:22:23;;;;;;;4.18;2.00;;;;;;;;;;4906766;29;20475;-82
2022/07/17 16:25:08;;;;;;;3.60;2.35;;;;;;;;;;4906696;29;20052;-83
2022/07/17 16:27:54;;;;;;;2.75;1.90;;;;;;;;;;4900972;29;20053;-83
2022/07/17 16:30:39;;;;;;;3.85;2.00;;;;;;;;;;4900329;29;20048;-82
2022/07/17 16:33:24;;;;;;;4.93;1.90;;;;;;;;;;4900262;29;20048;-82
2022/07/17 16:36:09;;;;;;;5.88;2.20;;;;;;;;;;4900074;29;20044;-82
2022/07/17 16:38:56;;;;;;;5.60;2.10;;;;;;;;;;4906237;29;20045;-82
2022/07/17 16:41:41;;;;;;;3.17;1.77;;;;;;;;;;4900062;29;20053;-80
2022/07/17 16:44:27;;;;;;;3.45;2.05;;;;;;;;;;4899782;29;20044;-78
2022/07/17 16:47:14;;;;;;;9.73;2.28;;;;;;;;;;4906235;29;20049;-79
2022/07/17 16:49:59;;;;;;;6.55;2.13;;;;;;;;;;4905986;29;20048;-81
2022/07/17 16:52:45;;;;;;;8.32;2.03;;;;;;;;;;4906615;29;20044;-81
2022/07/17 16:55:30;;;;;;;3.25;1.90;;;;;;;;;;4906358;29;20045;-81
2022/07/17 16:58:16;;;;;;;4.43;1.80;;;;;;;;;;4892023;29;20480;-80
2022/07/17 17:01:02;;;;;;;4.32;2.15;;;;;;;;;;4905922;29;20044;-81
2022/07/17 17:03:48;;;;;;;5.68;2.42;;;;;;;;;;4898728;29;20040;-80
2022/07/17 17:06:34;;;;;;;4.10;2.10;;;;;;;;;;4906463;29;20048;-80
2022/07/17 17:09:19;;;;;;;6.68;2.13;;;;;;;;;;4899703;29;20044;-81